Map

Track Data

SID SEASON NUMBER BASIN SUBBASIN NAME ISO_TIME NATURE LAT LON WMO_WIND WMO_PRES WMO_AGENCY TRACK_TYPE DIST2LAND LANDFALL IFLAG USA_AGENCY USA_ATCF_ID USA_LAT USA_LON USA_RECORD USA_STATUS USA_WIND USA_PRES USA_SSHS USA_R34_NE USA_R34_SE USA_R34_SW USA_R34_NW USA_R50_NE USA_R50_SE USA_R50_SW USA_R50_NW USA_R64_NE USA_R64_SE USA_R64_SW USA_R64_NW USA_POCI USA_ROCI USA_RMW USA_EYE TOKYO_LAT TOKYO_LON TOKYO_GRADE TOKYO_WIND TOKYO_PRES TOKYO_R50_DIR TOKYO_R50_LONG TOKYO_R50_SHORT TOKYO_R30_DIR TOKYO_R30_LONG TOKYO_R30_SHORT TOKYO_LAND CMA_LAT CMA_LON CMA_CAT CMA_WIND CMA_PRES HKO_LAT HKO_LON HKO_CAT HKO_WIND HKO_PRES NEWDELHI_LAT NEWDELHI_LON NEWDELHI_GRADE NEWDELHI_WIND NEWDELHI_PRES NEWDELHI_CI NEWDELHI_DP NEWDELHI_POCI REUNION_LAT REUNION_LON REUNION_TYPE REUNION_WIND REUNION_PRES REUNION_TNUM REUNION_CI REUNION_RMW REUNION_R34_NE REUNION_R34_SE REUNION_R34_SW REUNION_R34_NW REUNION_R50_NE REUNION_R50_SE REUNION_R50_SW REUNION_R50_NW REUNION_R64_NE REUNION_R64_SE REUNION_R64_SW REUNION_R64_NW BOM_LAT BOM_LON BOM_TYPE BOM_WIND BOM_PRES BOM_TNUM BOM_CI BOM_RMW BOM_R34_NE BOM_R34_SE BOM_R34_SW BOM_R34_NW BOM_R50_NE BOM_R50_SE BOM_R50_SW BOM_R50_NW BOM_R64_NE BOM_R64_SE BOM_R64_SW BOM_R64_NW BOM_ROCI BOM_POCI BOM_EYE BOM_POS_METHOD BOM_PRES_METHOD NADI_LAT NADI_LON NADI_CAT NADI_WIND NADI_PRES WELLINGTON_LAT WELLINGTON_LON WELLINGTON_WIND WELLINGTON_PRES DS824_LAT DS824_LON DS824_STAGE DS824_WIND DS824_PRES TD9636_LAT TD9636_LON TD9636_STAGE TD9636_WIND TD9636_PRES TD9635_LAT TD9635_LON TD9635_WIND TD9635_PRES TD9635_ROCI NEUMANN_LAT NEUMANN_LON NEUMANN_CLASS NEUMANN_WIND NEUMANN_PRES MLC_LAT MLC_LON MLC_CLASS MLC_WIND MLC_PRES USA_GUST BOM_GUST BOM_GUST_PER REUNION_GUST REUNION_GUST_PER USA_SEAHGT USA_SEARAD_NE USA_SEARAD_SE USA_SEARAD_SW USA_SEARAD_NW STORM_SPEED STORM_DIR
1944205N21091 1944 39 NI BB NOT_NAMED 1944-07-23 00:00:00 TS 20.9000 91.0000 main 114 113 _________O____ -1 20.9000 91.0000 TC 30 4 146
1944205N21091 1944 39 NI BB NOT_NAMED 1944-07-23 03:00:00 TS 20.7351 91.1168 main 117 108 _________PO___ -1 20.6526 91.1751 TC 31 20.9000 91.0000 1 5 151
1944205N21091 1944 39 NI BB NOT_NAMED 1944-07-23 06:00:00 TS 20.4937 91.2417 main 121 113 _________OP___ -1 20.4000 91.3000 TC 32 20.6343 91.1544 1 5 161
1944205N21091 1944 39 NI BB NOT_NAMED 1944-07-23 09:00:00 TS 20.2420 91.3000 main 127 127 _________PP___ -1 20.1424 91.3250 TC 33 20.3748 91.2666 1 5 0
1944205N21091 1944 39 NI BB NOT_NAMED 1944-07-23 12:00:00 TS 20.0140 91.2477 main 147 147 _________OP___ -1 19.9000 91.2000 TC 34 20.1279 91.2955 1 5 207
1944205N21091 1944 39 NI BB NOT_NAMED 1944-07-23 15:00:00 TS 19.7813 91.0511 main 168 168 _________PO___ -1 19.6626 90.9022 TC 36 19.9000 91.2000 2 6 230
1944205N21091 1944 39 NI BB NOT_NAMED 1944-07-23 18:00:00 TS 19.6001 90.7270 main 215 215 _________OP___ -1 19.5000 90.5000 TC 39 19.7003 90.9540 2 7 246
1944205N21091 1944 39 NI BB NOT_NAMED 1944-07-23 21:00:00 TS 19.4914 90.3528 main 248 248 _________PP___ -1 19.4324 90.1149 TC 42 19.5504 90.5906 2 8 261
1944205N21091 1944 39 NI BB NOT_NAMED 1944-07-24 00:00:00 TS 19.4876 89.9285 main 249 227 _________OP___ -1 19.5000 89.7000 TC 45 19.4753 90.1571 2 8 278
1944205N21091 1944 39 NI BB NOT_NAMED 1944-07-24 03:00:00 TS 19.6062 89.4751 main 227 201 _________PO___ -1 19.7125 89.2502 TC 45 19.5000 89.7000 3 9 292
1944205N21091 1944 39 NI BB NOT_NAMED 1944-07-24 06:00:00 TS 19.8185 89.0450 main 201 179 _________OP___ -1 20.0000 88.8000 TC 45 19.6371 89.2900 3 9 299
1944205N21091 1944 39 NI BB NOT_NAMED 1944-07-24 09:00:00 TS 20.0536 88.6290 main 168 132 _________PP___ -1 20.2349 88.3922 TC 45 19.8723 88.8657 3 9 304
1944205N21091 1944 39 NI BB NOT_NAMED 1944-07-24 12:00:00 TS 20.3357 88.2167 main 132 83 _________OP___ -1 20.5000 88.0000 TC 45 20.1714 88.4334 3 10 309
1944205N21091 1944 39 NI BB NOT_NAMED 1944-07-24 15:00:00 TS 20.6712 87.8037 main 83 47 _________PO___ -1 20.8424 87.6074 TC 41 20.5000 88.0000 3 10 311
1944205N21091 1944 39 NI BB NOT_NAMED 1944-07-24 18:00:00 TS 21.0095 87.3996 main 47 10 _________OP___ -1 21.2000 87.2000 TC 37 20.8189 87.5991 3 10 311
1944205N21091 1944 39 NI BB NOT_NAMED 1944-07-24 21:00:00 TS 21.3356 86.9835 main 10 0 _________PP___ -1 21.5148 86.7723 TC 33 21.1563 87.1946 3 10 308
1944205N21091 1944 39 NI BB NOT_NAMED 1944-07-25 00:00:00 TS 21.6453 86.5339 main 0 0 _________OP___ -1 21.8000 86.3000 TC 30 21.4906 86.7678 3 11 304
1944205N21091 1944 39 NI BB NOT_NAMED 1944-07-25 03:00:00 TS 21.9324 86.0362 main 0 0 _________PO___ -1 22.0649 85.7724 TC 30 21.8000 86.3000 1 11 299
1944205N21091 1944 39 NI BB NOT_NAMED 1944-07-25 06:00:00 TS 22.1848 85.4920 main 0 0 _________OP___ -1 22.3000 85.2000 TC 30 22.0696 85.7840 1 11 295
1944205N21091 1944 39 NI BB NOT_NAMED 1944-07-25 09:00:00 TS 22.4121 84.9197 main 0 0 _________PP___ -1 22.5148 84.6148 TC 30 22.3094 85.2246 1 12 291
1944205N21091 1944 39 NI BB NOT_NAMED 1944-07-25 12:00:00 TS 22.6097 84.3139 main 0 0 _________OP___ -1 22.7000 84.0000 TC 30 22.5194 84.6278 1 12 288
1944205N21091 1944 39 NI BB NOT_NAMED 1944-07-25 15:00:00 TS 22.7824 83.6824 main 0 0 _________PO___ -1 22.8647 83.3649 TC 30 22.7000 84.0000 1 12 286
1944205N21091 1944 39 NI BB NOT_NAMED 1944-07-25 18:00:00 TS 22.9268 83.0787 main 0 0 _________OP___ -1 23.0000 82.7000 TC 30 22.8535 83.4575 1 11 283
1944205N21091 1944 39 NI BB NOT_NAMED 1944-07-25 21:00:00 TS 23.0431 82.4846 main 0 0 _________PP___ -1 23.1057 82.0970 TC 30 22.9804 82.8722 1 13 280
1944205N21091 1944 39 NI BB NOT_NAMED 1944-07-26 00:00:00 TS 23.1462 81.7380 main 0 0 _________OP___ -1 23.2000 81.3000 TC 30 23.0924 82.1761 1 17 277
1944205N21091 1944 39 NI BB NOT_NAMED 1944-07-26 03:00:00 TS 23.2503 80.6987 main 0 0 _________PO___ -1 23.3006 80.0973 TC 30 23.2000 81.3000 1 21 275
1944205N21091 1944 39 NI BB NOT_NAMED 1944-07-26 06:00:00 TS 23.3455 79.4199 main 0 0 _________OP___ -1 23.4000 78.7000 TC 30 23.2910 80.1398 1 24 274
1944205N21091 1944 39 NI BB NOT_NAMED 1944-07-26 09:00:00 TS 23.4301 78.0694 main 0 0 _________PP___ -1 23.4846 77.3345 TC 30 23.3756 78.8043 1 25 274
1944205N21091 1944 39 NI AS NOT_NAMED 1944-07-26 12:00:00 TS 23.5358 76.6960 main 0 0 _________OP___ -1 23.6000 76.0000 TC 30 23.4717 77.3919 1 25 276
1944205N21091 1944 39 NI AS NOT_NAMED 1944-07-26 15:00:00 TS 23.6880 75.3887 main 0 0 _________PO___ -1 23.7760 74.7773 TC 30 23.6000 76.0000 1 23 279
1944205N21091 1944 39 NI AS NOT_NAMED 1944-07-26 18:00:00 TS 23.8733 74.2305 main 0 0 _________OP___ -1 24.0000 73.6000 TC 30 23.7783 74.7034 1 22 281
1944205N21091 1944 39 NI AS NOT_NAMED 1944-07-26 21:00:00 TS 24.0979 73.0582 main 0 0 _________PP___ -1 24.2472 72.4085 TC 30 23.9984 73.4914 1 21 282
1944205N21091 1944 39 NI AS NOT_NAMED 1944-07-27 00:00:00 TS 24.3297 71.9557 main 0 0 _________OP___ -1 24.5000 71.2000 TC 30 24.2445 72.3335 1 17 283
1944205N21091 1944 39 NI AS NOT_NAMED 1944-07-27 03:00:00 NR 24.5000 71.2000 main 0 __________O___ -1 TC 24.5000 71.2000 1 14 284

About IBTrACS Database

This database is a web-friendly format of International Best Track Archive for Climate Stewardship (IBTrACS), a global best track data archive curated by NOAA dating back to 1842.

Updated: 2021-12-01